sensor_id;sensor_type;location;lat;lon;timestamp;P1;durP1;ratioP1;P2;durP2;ratioP2
69795;SDS011;57073;45.650;9.612;2022-07-04T00:01:14;8.25;;;4.07;;
69795;SDS011;57073;45.650;9.612;2022-07-04T00:03:14;7.53;;;4.27;;
69795;SDS011;57073;45.650;9.612;2022-07-04T00:05:14;7.27;;;4.53;;
69795;SDS011;57073;45.650;9.612;2022-07-04T00:07:15;10.07;;;4.10;;
69795;SDS011;57073;45.650;9.612;2022-07-04T00:09:15;6.23;;;3.80;;
69795;SDS011;57073;45.650;9.612;2022-07-04T00:11:15;4.83;;;3.70;;
69795;SDS011;57073;45.650;9.612;2022-07-04T00:13:15;4.80;;;3.33;;
69795;SDS011;57073;45.650;9.612;2022-07-04T00:15:16;6.53;;;3.73;;
69795;SDS011;57073;45.650;9.612;2022-07-04T00:17:16;5.67;;;3.30;;
69795;SDS011;57073;45.650;9.612;2022-07-04T00:19:17;3.60;;;3.30;;
69795;SDS011;57073;45.650;9.612;2022-07-04T00:21:18;7.28;;;3.35;;
69795;SDS011;57073;45.650;9.612;2022-07-04T00:23:18;4.20;;;3.50;;
69795;SDS011;57073;45.650;9.612;2022-07-04T00:25:18;4.70;;;3.20;;
69795;SDS011;57073;45.650;9.612;2022-07-04T00:27:18;5.43;;;3.43;;
69795;SDS011;57073;45.650;9.612;2022-07-04T00:29:19;4.03;;;3.30;;
69795;SDS011;57073;45.650;9.612;2022-07-04T00:31:19;7.77;;;3.60;;
69795;SDS011;57073;45.650;9.612;2022-07-04T00:33:19;6.67;;;3.53;;
69795;SDS011;57073;45.650;9.612;2022-07-04T00:35:19;4.70;;;3.40;;
69795;SDS011;57073;45.650;9.612;2022-07-04T00:37:21;6.82;;;3.90;;
69795;SDS011;57073;45.650;9.612;2022-07-04T00:39:21;6.77;;;3.80;;
69795;SDS011;57073;45.650;9.612;2022-07-04T00:41:22;4.67;;;3.90;;
69795;SDS011;57073;45.650;9.612;2022-07-04T00:43:25;6.50;;;3.60;;
69795;SDS011;57073;45.650;9.612;2022-07-04T00:45:26;4.65;;;3.80;;
69795;SDS011;57073;45.650;9.612;2022-07-04T00:47:26;9.20;;;4.17;;
69795;SDS011;57073;45.650;9.612;2022-07-04T00:49:26;4.77;;;3.67;;
69795;SDS011;57073;45.650;9.612;2022-07-04T00:51:27;4.00;;;3.60;;
69795;SDS011;57073;45.650;9.612;2022-07-04T00:53:27;5.10;;;3.87;;
69795;SDS011;57073;45.650;9.612;2022-07-04T00:55:27;4.20;;;3.80;;
69795;SDS011;57073;45.650;9.612;2022-07-04T00:57:27;5.87;;;4.20;;
69795;SDS011;57073;45.650;9.612;2022-07-04T00:59:28;5.93;;;4.07;;
69795;SDS011;57073;45.650;9.612;2022-07-04T01:01:28;4.43;;;3.67;;
69795;SDS011;57073;45.650;9.612;2022-07-04T01:03:29;3.75;;;3.30;;
69795;SDS011;57073;45.650;9.612;2022-07-04T01:05:29;3.87;;;3.50;;
69795;SDS011;57073;45.650;9.612;2022-07-04T01:07:29;6.47;;;4.00;;
69795;SDS011;57073;45.650;9.612;2022-07-04T01:09:30;4.10;;;3.20;;
69795;SDS011;57073;45.650;9.612;2022-07-04T01:11:30;4.77;;;3.20;;
69795;SDS011;57073;45.650;9.612;2022-07-04T01:13:30;5.20;;;3.60;;
69795;SDS011;57073;45.650;9.612;2022-07-04T01:15:31;4.30;;;3.33;;
69795;SDS011;57073;45.650;9.612;2022-07-04T01:17:31;7.53;;;3.30;;
69795;SDS011;57073;45.650;9.612;2022-07-04T01:19:31;4.93;;;3.50;;
69795;SDS011;57073;45.650;9.612;2022-07-04T01:21:32;4.13;;;3.70;;
69795;SDS011;57073;45.650;9.612;2022-07-04T01:23:36;4.63;;;3.70;;
69795;SDS011;57073;45.650;9.612;2022-07-04T01:25:37;8.10;;;4.13;;
69795;SDS011;57073;45.650;9.612;2022-07-04T01:27:37;8.87;;;4.70;;
69795;SDS011;57073;45.650;9.612;2022-07-04T01:29:38;5.97;;;4.20;;
69795;SDS011;57073;45.650;9.612;2022-07-04T01:31:38;9.73;;;4.30;;
69795;SDS011;57073;45.650;9.612;2022-07-04T01:33:38;5.10;;;4.13;;
69795;SDS011;57073;45.650;9.612;2022-07-04T01:35:38;7.23;;;3.80;;
69795;SDS011;57073;45.650;9.612;2022-07-04T01:37:39;5.63;;;3.63;;
69795;SDS011;57073;45.650;9.612;2022-07-04T01:39:39;7.63;;;4.07;;
69795;SDS011;57073;45.650;9.612;2022-07-04T01:41:39;4.60;;;3.63;;
69795;SDS011;57073;45.650;9.612;2022-07-04T01:43:39;5.83;;;4.00;;
69795;SDS011;57073;45.650;9.612;2022-07-04T01:45:40;6.50;;;3.47;;
69795;SDS011;57073;45.650;9.612;2022-07-04T01:47:40;4.30;;;3.50;;
69795;SDS011;57073;45.650;9.612;2022-07-04T01:49:40;5.00;;;3.73;;
69795;SDS011;57073;45.650;9.612;2022-07-04T01:51:48;4.80;;;3.30;;
69795;SDS011;57073;45.650;9.612;2022-07-04T01:53:49;3.85;;;3.03;;
69795;SDS011;57073;45.650;9.612;2022-07-04T01:55:49;8.03;;;3.30;;
69795;SDS011;57073;45.650;9.612;2022-07-04T01:57:49;5.70;;;3.33;;
69795;SDS011;57073;45.650;9.612;2022-07-04T01:59:49;4.27;;;3.10;;
69795;SDS011;57073;45.650;9.612;2022-07-04T02:02:08;4.80;;;3.28;;
69795;SDS011;57073;45.650;9.612;2022-07-04T02:04:08;3.50;;;3.13;;
69795;SDS011;57073;45.650;9.612;2022-07-04T02:06:08;3.90;;;3.40;;
69795;SDS011;57073;45.650;9.612;2022-07-04T02:08:09;3.70;;;3.30;;
69795;SDS011;57073;45.650;9.612;2022-07-04T02:10:10;3.85;;;3.38;;
69795;SDS011;57073;45.650;9.612;2022-07-04T02:12:11;5.53;;;3.47;;
69795;SDS011;57073;45.650;9.612;2022-07-04T02:14:30;5.15;;;3.47;;
69795;SDS011;57073;45.650;9.612;2022-07-04T02:16:30;4.85;;;3.33;;
69795;SDS011;57073;45.650;9.612;2022-07-04T02:18:30;3.80;;;3.37;;
69795;SDS011;57073;45.650;9.612;2022-07-04T02:20:31;5.67;;;3.30;;
69795;SDS011;57073;45.650;9.612;2022-07-04T02:22:31;4.53;;;3.60;;
69795;SDS011;57073;45.650;9.612;2022-07-04T02:24:31;5.07;;;3.33;;
69795;SDS011;57073;45.650;9.612;2022-07-04T02:26:31;5.27;;;3.70;;
69795;SDS011;57073;45.650;9.612;2022-07-04T02:28:32;5.00;;;3.47;;
69795;SDS011;57073;45.650;9.612;2022-07-04T02:30:32;5.37;;;3.83;;
69795;SDS011;57073;45.650;9.612;2022-07-04T02:32:32;5.63;;;3.73;;
69795;SDS011;57073;45.650;9.612;2022-07-04T02:34:32;5.17;;;3.60;;
69795;SDS011;57073;45.650;9.612;2022-07-04T02:36:33;5.60;;;3.37;;
69795;SDS011;57073;45.650;9.612;2022-07-04T02:38:33;3.80;;;3.43;;
69795;SDS011;57073;45.650;9.612;2022-07-04T02:40:33;6.27;;;3.30;;
69795;SDS011;57073;45.650;9.612;2022-07-04T02:42:34;5.07;;;3.33;;
69795;SDS011;57073;45.650;9.612;2022-07-04T02:44:34;4.88;;;3.30;;
69795;SDS011;57073;45.650;9.612;2022-07-04T02:46:34;5.20;;;3.30;;
69795;SDS011;57073;45.650;9.612;2022-07-04T02:48:35;4.27;;;3.00;;
69795;SDS011;57073;45.650;9.612;2022-07-04T02:50:35;3.93;;;3.03;;
69795;SDS011;57073;45.650;9.612;2022-07-04T02:52:35;4.67;;;2.73;;
69795;SDS011;57073;45.650;9.612;2022-07-04T02:54:35;3.23;;;2.20;;
69795;SDS011;57073;45.650;9.612;2022-07-04T02:56:36;2.73;;;1.90;;
69795;SDS011;57073;45.650;9.612;2022-07-04T02:58:36;3.03;;;2.20;;
69795;SDS011;57073;45.650;9.612;2022-07-04T03:00:36;3.80;;;2.10;;
69795;SDS011;57073;45.650;9.612;2022-07-04T03:02:36;2.53;;;1.83;;
69795;SDS011;57073;45.650;9.612;2022-07-04T03:04:37;3.77;;;2.00;;
69795;SDS011;57073;45.650;9.612;2022-07-04T03:06:39;3.03;;;1.93;;
69795;SDS011;57073;45.650;9.612;2022-07-04T03:08:40;2.10;;;1.90;;
69795;SDS011;57073;45.650;9.612;2022-07-04T03:10:40;3.13;;;1.97;;
69795;SDS011;57073;45.650;9.612;2022-07-04T03:12:40;4.80;;;2.00;;
69795;SDS011;57073;45.650;9.612;2022-07-04T03:14:40;3.70;;;2.20;;
69795;SDS011;57073;45.650;9.612;2022-07-04T03:16:41;2.70;;;1.90;;
69795;SDS011;57073;45.650;9.612;2022-07-04T03:18:41;2.57;;;1.63;;
69795;SDS011;57073;45.650;9.612;2022-07-04T03:20:41;2.10;;;1.67;;
69795;SDS011;57073;45.650;9.612;2022-07-04T03:22:41;2.20;;;1.77;;
69795;SDS011;57073;45.650;9.612;2022-07-04T03:24:42;2.90;;;2.00;;
69795;SDS011;57073;45.650;9.612;2022-07-04T03:26:42;3.40;;;2.00;;
69795;SDS011;57073;45.650;9.612;2022-07-04T03:28:42;2.43;;;2.00;;
69795;SDS011;57073;45.650;9.612;2022-07-04T03:30:42;2.37;;;2.00;;
69795;SDS011;57073;45.650;9.612;2022-07-04T03:32:43;2.90;;;1.80;;
69795;SDS011;57073;45.650;9.612;2022-07-04T03:34:43;3.87;;;1.93;;
69795;SDS011;57073;45.650;9.612;2022-07-04T03:36:43;3.20;;;2.00;;
69795;SDS011;57073;45.650;9.612;2022-07-04T03:38:43;2.97;;;2.10;;
69795;SDS011;57073;45.650;9.612;2022-07-04T03:40:44;4.37;;;2.00;;
69795;SDS011;57073;45.650;9.612;2022-07-04T03:42:44;4.03;;;2.00;;
69795;SDS011;57073;45.650;9.612;2022-07-04T03:44:44;2.83;;;2.10;;
69795;SDS011;57073;45.650;9.612;2022-07-04T03:46:44;3.87;;;2.00;;
69795;SDS011;57073;45.650;9.612;2022-07-04T03:48:45;3.03;;;2.00;;
69795;SDS011;57073;45.650;9.612;2022-07-04T03:50:45;2.70;;;1.90;;
69795;SDS011;57073;45.650;9.612;2022-07-04T03:52:46;3.57;;;2.07;;
69795;SDS011;57073;45.650;9.612;2022-07-04T03:54:46;2.93;;;2.10;;
69795;SDS011;57073;45.650;9.612;2022-07-04T03:56:46;2.30;;;2.07;;
69795;SDS011;57073;45.650;9.612;2022-07-04T03:58:46;2.73;;;2.00;;
69795;SDS011;57073;45.650;9.612;2022-07-04T04:00:50;2.15;;;1.90;;
69795;SDS011;57073;45.650;9.612;2022-07-04T04:02:50;3.17;;;2.20;;
69795;SDS011;57073;45.650;9.612;2022-07-04T04:04:50;2.60;;;2.10;;
69795;SDS011;57073;45.650;9.612;2022-07-04T04:07:09;4.60;;;2.28;;
69795;SDS011;57073;45.650;9.612;2022-07-04T04:09:09;2.90;;;2.00;;
69795;SDS011;57073;45.650;9.612;2022-07-04T04:11:16;3.50;;;1.80;;
69795;SDS011;57073;45.650;9.612;2022-07-04T04:13:16;3.50;;;2.40;;
69795;SDS011;57073;45.650;9.612;2022-07-04T04:15:16;3.57;;;2.10;;
69795;SDS011;57073;45.650;9.612;2022-07-04T04:17:17;3.30;;;2.17;;
69795;SDS011;57073;45.650;9.612;2022-07-04T04:19:17;2.97;;;2.07;;
69795;SDS011;57073;45.650;9.612;2022-07-04T04:21:17;4.83;;;2.33;;
69795;SDS011;57073;45.650;9.612;2022-07-04T04:23:17;3.37;;;2.10;;
69795;SDS011;57073;45.650;9.612;2022-07-04T04:25:18;3.17;;;2.07;;
69795;SDS011;57073;45.650;9.612;2022-07-04T04:27:18;2.93;;;2.20;;
69795;SDS011;57073;45.650;9.612;2022-07-04T04:29:18;3.70;;;2.40;;
69795;SDS011;57073;45.650;9.612;2022-07-04T04:31:19;3.80;;;2.50;;
69795;SDS011;57073;45.650;9.612;2022-07-04T04:33:19;3.70;;;2.20;;
69795;SDS011;57073;45.650;9.612;2022-07-04T04:35:19;3.57;;;2.20;;
69795;SDS011;57073;45.650;9.612;2022-07-04T04:37:19;2.83;;;2.30;;
69795;SDS011;57073;45.650;9.612;2022-07-04T04:39:19;3.77;;;2.20;;
69795;SDS011;57073;45.650;9.612;2022-07-04T04:41:20;2.83;;;2.40;;
69795;SDS011;57073;45.650;9.612;2022-07-04T04:43:20;5.53;;;2.53;;
69795;SDS011;57073;45.650;9.612;2022-07-04T04:45:20;3.40;;;2.30;;
69795;SDS011;57073;45.650;9.612;2022-07-04T04:47:21;5.13;;;2.40;;
69795;SDS011;57073;45.650;9.612;2022-07-04T04:49:21;2.83;;;2.20;;
69795;SDS011;57073;45.650;9.612;2022-07-04T04:51:21;4.13;;;2.57;;
69795;SDS011;57073;45.650;9.612;2022-07-04T04:53:21;3.63;;;2.50;;
69795;SDS011;57073;45.650;9.612;2022-07-04T04:55:25;3.38;;;2.30;;
69795;SDS011;57073;45.650;9.612;2022-07-04T04:57:25;5.17;;;2.50;;
69795;SDS011;57073;45.650;9.612;2022-07-04T04:59:26;4.83;;;2.47;;
69795;SDS011;57073;45.650;9.612;2022-07-04T05:01:27;2.88;;;2.38;;
69795;SDS011;57073;45.650;9.612;2022-07-04T05:03:27;4.60;;;2.20;;
69795;SDS011;57073;45.650;9.612;2022-07-04T05:05:27;4.07;;;2.20;;
69795;SDS011;57073;45.650;9.612;2022-07-04T05:07:27;5.70;;;2.53;;
69795;SDS011;57073;45.650;9.612;2022-07-04T05:09:28;3.90;;;2.10;;
69795;SDS011;57073;45.650;9.612;2022-07-04T05:11:28;3.47;;;2.23;;
69795;SDS011;57073;45.650;9.612;2022-07-04T05:13:28;2.47;;;2.10;;
69795;SDS011;57073;45.650;9.612;2022-07-04T05:15:28;6.80;;;2.40;;
69795;SDS011;57073;45.650;9.612;2022-07-04T05:17:28;4.43;;;2.50;;
69795;SDS011;57073;45.650;9.612;2022-07-04T05:19:29;4.70;;;2.60;;
69795;SDS011;57073;45.650;9.612;2022-07-04T05:21:29;2.93;;;2.57;;
69795;SDS011;57073;45.650;9.612;2022-07-04T05:23:29;4.55;;;2.50;;
69795;SDS011;57073;45.650;9.612;2022-07-04T05:25:29;2.50;;;2.30;;
69795;SDS011;57073;45.650;9.612;2022-07-04T05:27:30;4.37;;;2.37;;
69795;SDS011;57073;45.650;9.612;2022-07-04T05:29:31;5.45;;;2.90;;
69795;SDS011;57073;45.650;9.612;2022-07-04T05:31:31;5.43;;;2.97;;
69795;SDS011;57073;45.650;9.612;2022-07-04T05:33:31;4.97;;;2.63;;
69795;SDS011;57073;45.650;9.612;2022-07-04T05:35:31;3.03;;;2.40;;
69795;SDS011;57073;45.650;9.612;2022-07-04T05:37:32;4.73;;;2.30;;
69795;SDS011;57073;45.650;9.612;2022-07-04T05:39:32;4.27;;;2.30;;
69795;SDS011;57073;45.650;9.612;2022-07-04T05:41:32;3.43;;;2.47;;
69795;SDS011;57073;45.650;9.612;2022-07-04T05:43:33;4.63;;;2.40;;
69795;SDS011;57073;45.650;9.612;2022-07-04T05:45:33;4.37;;;2.60;;
69795;SDS011;57073;45.650;9.612;2022-07-04T05:47:33;3.20;;;2.50;;
69795;SDS011;57073;45.650;9.612;2022-07-04T05:49:33;3.50;;;2.47;;
69795;SDS011;57073;45.650;9.612;2022-07-04T05:51:34;2.80;;;2.40;;
69795;SDS011;57073;45.650;9.612;2022-07-04T05:53:34;6.00;;;2.50;;
69795;SDS011;57073;45.650;9.612;2022-07-04T05:55:34;4.17;;;2.47;;
69795;SDS011;57073;45.650;9.612;2022-07-04T05:57:35;3.57;;;2.33;;
69795;SDS011;57073;45.650;9.612;2022-07-04T05:59:35;5.22;;;2.50;;
69795;SDS011;57073;45.650;9.612;2022-07-04T06:01:36;5.00;;;2.50;;
69795;SDS011;57073;45.650;9.612;2022-07-04T06:03:36;3.25;;;2.47;;
69795;SDS011;57073;45.650;9.612;2022-07-04T06:05:37;4.83;;;2.60;;
69795;SDS011;57073;45.650;9.612;2022-07-04T06:07:37;5.20;;;2.40;;
69795;SDS011;57073;45.650;9.612;2022-07-04T06:09:37;3.73;;;2.60;;
69795;SDS011;57073;45.650;9.612;2022-07-04T06:11:37;5.63;;;2.47;;
69795;SDS011;57073;45.650;9.612;2022-07-04T06:13:38;6.00;;;2.57;;
69795;SDS011;57073;45.650;9.612;2022-07-04T06:15:38;4.17;;;2.70;;
69795;SDS011;57073;45.650;9.612;2022-07-04T06:17:39;3.88;;;2.40;;
69795;SDS011;57073;45.650;9.612;2022-07-04T06:19:39;3.40;;;2.23;;
69795;SDS011;57073;45.650;9.612;2022-07-04T06:21:39;4.07;;;2.33;;
69795;SDS011;57073;45.650;9.612;2022-07-04T06:23:40;7.40;;;2.33;;
69795;SDS011;57073;45.650;9.612;2022-07-04T06:25:40;3.40;;;2.17;;
69795;SDS011;57073;45.650;9.612;2022-07-04T06:27:41;4.70;;;2.33;;
69795;SDS011;57073;45.650;9.612;2022-07-04T06:29:42;4.35;;;2.60;;
69795;SDS011;57073;45.650;9.612;2022-07-04T06:31:42;3.73;;;2.30;;
69795;SDS011;57073;45.650;9.612;2022-07-04T06:33:42;4.33;;;2.60;;
69795;SDS011;57073;45.650;9.612;2022-07-04T06:36:01;4.13;;;2.50;;
69795;SDS011;57073;45.650;9.612;2022-07-04T06:38:02;4.73;;;2.37;;
69795;SDS011;57073;45.650;9.612;2022-07-04T06:40:02;2.80;;;2.27;;
69795;SDS011;57073;45.650;9.612;2022-07-04T06:42:02;4.83;;;2.70;;
69795;SDS011;57073;45.650;9.612;2022-07-04T06:44:03;4.80;;;2.50;;
69795;SDS011;57073;45.650;9.612;2022-07-04T06:46:04;3.58;;;2.38;;
69795;SDS011;57073;45.650;9.612;2022-07-04T06:48:04;4.43;;;2.70;;
69795;SDS011;57073;45.650;9.612;2022-07-04T06:50:05;4.85;;;2.70;;
69795;SDS011;57073;45.650;9.612;2022-07-04T06:52:05;4.47;;;2.67;;
69795;SDS011;57073;45.650;9.612;2022-07-04T06:54:05;3.67;;;2.70;;
69795;SDS011;57073;45.650;9.612;2022-07-04T06:56:06;3.67;;;2.30;;
69795;SDS011;57073;45.650;9.612;2022-07-04T06:58:06;7.30;;;2.50;;
69795;SDS011;57073;45.650;9.612;2022-07-04T07:00:07;6.97;;;2.58;;
69795;SDS011;57073;45.650;9.612;2022-07-04T07:02:08;4.60;;;2.50;;
69795;SDS011;57073;45.650;9.612;2022-07-04T07:04:08;4.73;;;2.50;;
69795;SDS011;57073;45.650;9.612;2022-07-04T07:06:08;4.70;;;2.30;;
69795;SDS011;57073;45.650;9.612;2022-07-04T07:08:08;5.37;;;2.83;;
69795;SDS011;57073;45.650;9.612;2022-07-04T07:10:09;4.83;;;3.03;;
69795;SDS011;57073;45.650;9.612;2022-07-04T07:12:09;5.10;;;2.60;;
69795;SDS011;57073;45.650;9.612;2022-07-04T07:14:09;4.75;;;2.88;;
69795;SDS011;57073;45.650;9.612;2022-07-04T07:16:10;5.60;;;2.83;;
69795;SDS011;57073;45.650;9.612;2022-07-04T07:18:10;5.77;;;2.83;;
69795;SDS011;57073;45.650;9.612;2022-07-04T07:20:11;4.87;;;2.60;;
69795;SDS011;57073;45.650;9.612;2022-07-04T07:22:14;6.78;;;2.80;;
69795;SDS011;57073;45.650;9.612;2022-07-04T07:24:14;5.05;;;2.90;;
69795;SDS011;57073;45.650;9.612;2022-07-04T07:26:14;5.97;;;2.80;;
69795;SDS011;57073;45.650;9.612;2022-07-04T07:28:14;7.33;;;2.90;;
69795;SDS011;57073;45.650;9.612;2022-07-04T07:30:15;5.63;;;2.70;;
69795;SDS011;57073;45.650;9.612;2022-07-04T07:32:15;6.00;;;2.80;;
69795;SDS011;57073;45.650;9.612;2022-07-04T07:34:17;7.45;;;2.63;;
69795;SDS011;57073;45.650;9.612;2022-07-04T07:36:17;3.33;;;2.93;;
69795;SDS011;57073;45.650;9.612;2022-07-04T07:38:17;6.03;;;2.70;;
69795;SDS011;57073;45.650;9.612;2022-07-04T07:40:18;5.93;;;2.97;;
69795;SDS011;57073;45.650;9.612;2022-07-04T07:42:18;6.03;;;2.53;;
69795;SDS011;57073;45.650;9.612;2022-07-04T07:44:18;6.33;;;2.60;;
69795;SDS011;57073;45.650;9.612;2022-07-04T07:46:18;8.50;;;2.80;;
69795;SDS011;57073;45.650;9.612;2022-07-04T07:48:18;5.73;;;3.03;;
69795;SDS011;57073;45.650;9.612;2022-07-04T07:50:19;4.50;;;2.77;;
69795;SDS011;57073;45.650;9.612;2022-07-04T07:52:19;7.00;;;2.97;;
69795;SDS011;57073;45.650;9.612;2022-07-04T07:54:19;5.03;;;3.00;;
69795;SDS011;57073;45.650;9.612;2022-07-04T07:56:19;5.37;;;2.83;;
69795;SDS011;57073;45.650;9.612;2022-07-04T07:58:20;5.20;;;3.17;;
69795;SDS011;57073;45.650;9.612;2022-07-04T08:00:20;6.23;;;3.17;;
69795;SDS011;57073;45.650;9.612;2022-07-04T08:02:20;4.30;;;3.20;;
69795;SDS011;57073;45.650;9.612;2022-07-04T08:04:41;5.97;;;2.83;;
69795;SDS011;57073;45.650;9.612;2022-07-04T08:06:41;8.17;;;3.33;;
69795;SDS011;57073;45.650;9.612;2022-07-04T08:08:42;3.47;;;3.10;;
69795;SDS011;57073;45.650;9.612;2022-07-04T08:10:42;5.30;;;3.57;;
69795;SDS011;57073;45.650;9.612;2022-07-04T08:12:42;5.73;;;3.07;;
69795;SDS011;57073;45.650;9.612;2022-07-04T08:14:43;6.40;;;3.40;;
69795;SDS011;57073;45.650;9.612;2022-07-04T08:16:43;4.07;;;3.43;;
69795;SDS011;57073;45.650;9.612;2022-07-04T08:18:43;5.33;;;3.50;;
69795;SDS011;57073;45.650;9.612;2022-07-04T08:20:43;6.63;;;3.70;;
69795;SDS011;57073;45.650;9.612;2022-07-04T08:22:44;5.57;;;3.53;;
69795;SDS011;57073;45.650;9.612;2022-07-04T08:24:44;5.30;;;3.20;;
69795;SDS011;57073;45.650;9.612;2022-07-04T08:26:44;5.93;;;3.27;;
69795;SDS011;57073;45.650;9.612;2022-07-04T08:28:45;6.03;;;3.27;;
69795;SDS011;57073;45.650;9.612;2022-07-04T08:30:45;4.20;;;3.60;;
69795;SDS011;57073;45.650;9.612;2022-07-04T08:32:46;6.83;;;3.57;;
69795;SDS011;57073;45.650;9.612;2022-07-04T08:34:46;6.27;;;3.60;;
69795;SDS011;57073;45.650;9.612;2022-07-04T08:36:47;7.32;;;3.50;;
69795;SDS011;57073;45.650;9.612;2022-07-04T08:38:47;5.30;;;3.23;;
69795;SDS011;57073;45.650;9.612;2022-07-04T08:40:47;5.53;;;3.17;;
69795;SDS011;57073;45.650;9.612;2022-07-04T08:42:50;7.15;;;3.47;;
69795;SDS011;57073;45.650;9.612;2022-07-04T08:44:51;4.60;;;3.53;;
69795;SDS011;57073;45.650;9.612;2022-07-04T08:46:52;8.97;;;3.57;;
69795;SDS011;57073;45.650;9.612;2022-07-04T08:48:52;5.38;;;3.60;;
69795;SDS011;57073;45.650;9.612;2022-07-04T08:50:55;5.25;;;3.92;;
69795;SDS011;57073;45.650;9.612;2022-07-04T08:53:00;8.20;;;3.55;;
69795;SDS011;57073;45.650;9.612;2022-07-04T08:55:02;6.25;;;3.50;;
69795;SDS011;57073;45.650;9.612;2022-07-04T08:57:21;4.97;;;3.10;;
69795;SDS011;57073;45.650;9.612;2022-07-04T08:59:40;8.35;;;3.45;;
69795;SDS011;57073;45.650;9.612;2022-07-04T09:01:45;5.93;;;3.50;;
69795;SDS011;57073;45.650;9.612;2022-07-04T09:03:45;5.83;;;3.40;;
69795;SDS011;57073;45.650;9.612;2022-07-04T09:05:46;6.23;;;3.30;;
69795;SDS011;57073;45.650;9.612;2022-07-04T09:07:46;4.68;;;3.50;;
69795;SDS011;57073;45.650;9.612;2022-07-04T09:09:47;5.80;;;3.30;;
69795;SDS011;57073;45.650;9.612;2022-07-04T09:11:48;4.45;;;3.40;;
69795;SDS011;57073;45.650;9.612;2022-07-04T09:13:48;5.93;;;3.63;;
69795;SDS011;57073;45.650;9.612;2022-07-04T09:15:49;6.37;;;3.43;;
69795;SDS011;57073;45.650;9.612;2022-07-04T09:17:49;8.55;;;3.40;;
69795;SDS011;57073;45.650;9.612;2022-07-04T09:22:09;7.80;;;3.75;;
69795;SDS011;57073;45.650;9.612;2022-07-04T09:24:15;5.57;;;3.60;;
69795;SDS011;57073;45.650;9.612;2022-07-04T09:28:27;8.10;;;3.38;;
69795;SDS011;57073;45.650;9.612;2022-07-04T09:30:28;4.10;;;3.50;;
69795;SDS011;57073;45.650;9.612;2022-07-04T09:34:54;4.70;;;3.17;;
69795;SDS011;57073;45.650;9.612;2022-07-04T09:36:54;8.37;;;3.60;;
69795;SDS011;57073;45.650;9.612;2022-07-04T09:39:10;5.93;;;2.80;;
69795;SDS011;57073;45.650;9.612;2022-07-04T09:41:18;4.22;;;2.60;;
69795;SDS011;57073;45.650;9.612;2022-07-04T09:43:34;4.05;;;2.30;;
69795;SDS011;57073;45.650;9.612;2022-07-04T09:45:35;6.23;;;2.07;;
69795;SDS011;57073;45.650;9.612;2022-07-04T09:47:35;5.47;;;2.17;;
69795;SDS011;57073;45.650;9.612;2022-07-04T09:49:36;5.05;;;2.28;;
69795;SDS011;57073;45.650;9.612;2022-07-04T09:53:39;4.80;;;2.08;;
69795;SDS011;57073;45.650;9.612;2022-07-04T09:55:40;5.20;;;2.40;;
69795;SDS011;57073;45.650;9.612;2022-07-04T09:57:43;5.57;;;2.10;;
69795;SDS011;57073;45.650;9.612;2022-07-04T09:59:44;2.97;;;2.33;;
69795;SDS011;57073;45.650;9.612;2022-07-04T10:01:45;3.00;;;2.00;;
69795;SDS011;57073;45.650;9.612;2022-07-04T10:03:45;3.20;;;2.00;;
69795;SDS011;57073;45.650;9.612;2022-07-04T10:06:07;2.73;;;2.10;;
69795;SDS011;57073;45.650;9.612;2022-07-04T10:08:08;5.00;;;2.50;;
69795;SDS011;57073;45.650;9.612;2022-07-04T10:12:24;4.05;;;2.20;;
69795;SDS011;57073;45.650;9.612;2022-07-04T10:14:25;2.53;;;2.22;;
69795;SDS011;57073;45.650;9.612;2022-07-04T10:16:26;2.47;;;2.07;;
69795;SDS011;57073;45.650;9.612;2022-07-04T10:18:27;5.35;;;2.50;;
69795;SDS011;57073;45.650;9.612;2022-07-04T10:20:27;2.77;;;2.37;;
69795;SDS011;57073;45.650;9.612;2022-07-04T10:22:28;6.53;;;2.67;;
69795;SDS011;57073;45.650;9.612;2022-07-04T10:24:28;3.93;;;2.67;;
69795;SDS011;57073;45.650;9.612;2022-07-04T10:26:28;5.50;;;2.30;;
69795;SDS011;57073;45.650;9.612;2022-07-04T10:28:29;6.90;;;2.50;;
69795;SDS011;57073;45.650;9.612;2022-07-04T10:30:34;5.20;;;2.60;;
69795;SDS011;57073;45.650;9.612;2022-07-04T10:32:35;4.35;;;2.60;;
69795;SDS011;57073;45.650;9.612;2022-07-04T10:34:39;3.70;;;3.00;;
69795;SDS011;57073;45.650;9.612;2022-07-04T10:36:42;5.65;;;3.30;;
69795;SDS011;57073;45.650;9.612;2022-07-04T10:38:51;5.65;;;3.05;;
69795;SDS011;57073;45.650;9.612;2022-07-04T10:42:52;4.57;;;3.20;;
69795;SDS011;57073;45.650;9.612;2022-07-04T10:44:53;6.57;;;3.73;;
69795;SDS011;57073;45.650;9.612;2022-07-04T10:46:53;6.40;;;3.20;;
69795;SDS011;57073;45.650;9.612;2022-07-04T10:49:02;5.85;;;3.63;;
69795;SDS011;57073;45.650;9.612;2022-07-04T10:51:03;4.70;;;3.05;;
69795;SDS011;57073;45.650;9.612;2022-07-04T10:53:10;4.07;;;3.17;;
69795;SDS011;57073;45.650;9.612;2022-07-04T10:55:10;5.13;;;3.00;;
69795;SDS011;57073;45.650;9.612;2022-07-04T10:59:27;4.13;;;3.30;;
69795;SDS011;57073;45.650;9.612;2022-07-04T11:01:29;3.28;;;2.97;;
69795;SDS011;57073;45.650;9.612;2022-07-04T11:03:29;4.13;;;2.93;;
69795;SDS011;57073;45.650;9.612;2022-07-04T11:05:30;6.83;;;3.10;;
69795;SDS011;57073;45.650;9.612;2022-07-04T11:09:37;5.85;;;3.20;;
69795;SDS011;57073;45.650;9.612;2022-07-04T11:14:19;3.23;;;2.90;;
69795;SDS011;57073;45.650;9.612;2022-07-04T11:16:10;5.82;;;3.00;;
69795;SDS011;57073;45.650;9.612;2022-07-04T11:18:10;4.47;;;3.10;;
69795;SDS011;57073;45.650;9.612;2022-07-04T11:20:12;9.18;;;3.17;;
69795;SDS011;57073;45.650;9.612;2022-07-04T11:22:14;4.97;;;3.40;;
69795;SDS011;57073;45.650;9.612;2022-07-04T11:24:21;4.28;;;2.75;;
69795;SDS011;57073;45.650;9.612;2022-07-04T11:26:21;5.07;;;2.80;;
69795;SDS011;57073;45.650;9.612;2022-07-04T11:28:26;3.00;;;2.70;;
69795;SDS011;57073;45.650;9.612;2022-07-04T11:30:26;6.60;;;2.80;;
69795;SDS011;57073;45.650;9.612;2022-07-04T11:32:29;4.07;;;2.90;;
69795;SDS011;57073;45.650;9.612;2022-07-04T11:34:30;3.55;;;2.55;;
69795;SDS011;57073;45.650;9.612;2022-07-04T11:36:31;4.63;;;2.70;;
69795;SDS011;57073;45.650;9.612;2022-07-04T11:40:44;4.80;;;2.90;;
69795;SDS011;57073;45.650;9.612;2022-07-04T11:43:03;4.45;;;2.72;;
69795;SDS011;57073;45.650;9.612;2022-07-04T11:45:22;3.50;;;2.50;;
69795;SDS011;57073;45.650;9.612;2022-07-04T11:47:31;3.73;;;2.57;;
69795;SDS011;57073;45.650;9.612;2022-07-04T11:49:32;4.40;;;2.88;;
69795;SDS011;57073;45.650;9.612;2022-07-04T11:51:32;3.73;;;2.80;;
69795;SDS011;57073;45.650;9.612;2022-07-04T11:53:32;5.60;;;2.67;;
69795;SDS011;57073;45.650;9.612;2022-07-04T11:55:33;5.18;;;2.70;;
69795;SDS011;57073;45.650;9.612;2022-07-04T11:57:34;3.87;;;2.50;;
69795;SDS011;57073;45.650;9.612;2022-07-04T11:59:35;7.47;;;2.85;;
69795;SDS011;57073;45.650;9.612;2022-07-04T12:01:36;3.37;;;2.27;;
69795;SDS011;57073;45.650;9.612;2022-07-04T12:03:37;3.53;;;2.65;;
69795;SDS011;57073;45.650;9.612;2022-07-04T12:05:37;3.70;;;2.80;;
69795;SDS011;57073;45.650;9.612;2022-07-04T12:07:38;4.80;;;2.93;;
69795;SDS011;57073;45.650;9.612;2022-07-04T12:09:39;4.57;;;2.80;;
69795;SDS011;57073;45.650;9.612;2022-07-04T12:11:50;3.40;;;2.83;;
69795;SDS011;57073;45.650;9.612;2022-07-04T12:13:50;5.10;;;2.88;;
69795;SDS011;57073;45.650;9.612;2022-07-04T12:15:51;4.70;;;2.90;;
69795;SDS011;57073;45.650;9.612;2022-07-04T12:17:56;4.60;;;2.90;;
69795;SDS011;57073;45.650;9.612;2022-07-04T12:19:57;5.63;;;2.90;;
69795;SDS011;57073;45.650;9.612;2022-07-04T12:21:58;5.88;;;3.00;;
69795;SDS011;57073;45.650;9.612;2022-07-04T12:23:58;4.60;;;3.20;;
69795;SDS011;57073;45.650;9.612;2022-07-04T12:25:59;3.57;;;2.70;;
69795;SDS011;57073;45.650;9.612;2022-07-04T12:28:03;5.00;;;3.20;;
69795;SDS011;57073;45.650;9.612;2022-07-04T12:30:04;5.68;;;2.75;;
69795;SDS011;57073;45.650;9.612;2022-07-04T12:32:04;4.03;;;2.95;;
69795;SDS011;57073;45.650;9.612;2022-07-04T12:34:14;3.27;;;2.87;;